Terminal Aerodrome Forecast
Issued by NWS

Home | Current Version | Previous Version | Text Only | Print | Product List | Glossary On
Versions: 1 2 3 4 5 6 7 8 9 10 11 12 13 14 15
000
FTUS43 KICT 011034 AAA
TAFCNU
TAF AMD
KCNU 011034Z 0111/0206 VRB03KT 4SM BR SKC
      TEMPO 0111/0113 1SM BR SCT003
     FM011400 VRB03KT P6SM SKC
     FM011900 18010KT P6SM FEW040 SCT250
     FM020300 16005KT P6SM FEW250=

USA.gov is the U.S. government's official web portal to all federal, state and local government web resources and services.